createdAt,value
2019-03-31T11:49:46.648Z,33.72
2019-03-31T11:50:46.580Z,33.81
2019-03-31T11:51:46.616Z,33.74
2019-03-31T11:52:46.590Z,33.91
2019-03-31T11:53:46.575Z,33.51
2019-03-31T11:54:46.597Z,33.99
2019-03-31T11:55:46.637Z,33.80
2019-03-31T11:56:46.635Z,33.65
2019-03-31T11:57:46.638Z,33.73
2019-03-31T11:58:46.628Z,33.62
2019-03-31T11:59:49.546Z,33.42
2019-03-31T12:00:46.617Z,33.27
2019-03-31T12:01:46.607Z,33.42
2019-03-31T12:02:46.594Z,33.72
2019-03-31T12:03:46.606Z,33.53
2019-03-31T12:04:46.636Z,33.75
2019-03-31T12:05:46.716Z,33.56
2019-03-31T12:07:28.399Z,33.51
2019-03-31T12:08:26.152Z,33.57
2019-03-31T12:15:06.231Z,33.25
2019-03-31T12:45:19.933Z,32.82
2019-03-31T12:46:19.935Z,33.14
2019-03-31T12:47:19.933Z,33.26
2019-03-31T12:48:19.945Z,33.23
2019-03-31T12:49:19.932Z,33.01
2019-03-31T12:50:19.963Z,33.59
2019-03-31T12:51:19.915Z,33.32
2019-03-31T12:52:19.931Z,33.22
2019-03-31T12:53:19.938Z,33.20
2019-03-31T12:54:19.941Z,33.09
2019-03-31T12:55:19.946Z,32.69
2019-03-31T12:56:19.986Z,33.16
2019-03-31T12:57:51.541Z,33.23
2019-03-31T12:58:48.060Z,33.13
2019-03-31T12:59:48.049Z,33.40
2019-03-31T13:00:48.100Z,33.29
2019-03-31T13:01:48.115Z,33.25
2019-03-31T13:02:48.067Z,33.12
2019-03-31T13:03:48.109Z,33.36
2019-03-31T13:04:48.071Z,33.18
2019-03-31T13:05:48.095Z,33.47
2019-03-31T13:06:48.085Z,33.26
2019-03-31T13:07:56.165Z,33.45
2019-03-31T13:08:48.082Z,33.37
2019-03-31T13:09:48.101Z,33.34
2019-03-31T13:10:48.114Z,33.50
2019-03-31T13:11:50.415Z,33.42
2019-03-31T13:12:48.074Z,33.30
2019-03-31T13:13:48.064Z,33.16
2019-03-31T13:14:48.099Z,33.59
2019-03-31T13:15:48.080Z,33.50
2019-03-31T13:16:48.116Z,33.31
2019-03-31T13:44:59.770Z,33.42
2019-03-31T13:46:00.305Z,33.46
2019-03-31T13:46:59.745Z,33.16
2019-03-31T13:47:59.769Z,33.67
2019-03-31T13:48:59.772Z,33.26
2019-03-31T13:49:59.758Z,33.70
2019-03-31T13:50:59.750Z,33.26
2019-03-31T13:51:59.756Z,33.24
2019-03-31T13:52:59.833Z,33.75
2019-03-31T13:53:59.805Z,33.39
2019-03-31T13:54:59.803Z,33.22
2019-03-31T13:55:59.826Z,33.49
2019-03-31T13:56:59.919Z,33.57
2019-03-31T13:58:02.156Z,33.20
2019-03-31T13:58:59.807Z,33.50
2019-03-31T13:59:59.789Z,33.27
2019-03-31T14:00:59.855Z,33.23
2019-03-31T14:02:00.409Z,32.94
2019-03-31T14:02:59.805Z,32.97
2019-03-31T14:04:03.211Z,32.99
2019-03-31T14:04:59.792Z,33.20
2019-03-31T14:05:59.778Z,32.84
2019-03-31T14:06:59.803Z,32.97
2019-03-31T14:07:59.830Z,33.34
2019-03-31T14:08:59.818Z,33.31
2019-03-31T14:09:59.793Z,33.15
2019-03-31T14:10:59.808Z,33.07
2019-03-31T14:11:59.803Z,32.96
2019-03-31T14:12:59.809Z,33.14
2019-03-31T14:13:59.816Z,33.13
2019-03-31T14:14:59.832Z,33.02
2019-03-31T14:15:59.838Z,32.94
2019-03-31T14:16:59.803Z,33.03
2019-03-31T14:18:15.298Z,32.51
2019-03-31T14:19:15.293Z,32.65
2019-03-31T14:20:15.274Z,32.63
2019-03-31T14:21:15.289Z,32.81
2019-03-31T14:22:15.300Z,33.17
2019-03-31T14:23:15.261Z,32.61
2019-03-31T14:24:15.317Z,33.02
2019-03-31T14:25:15.277Z,32.82
2019-03-31T14:26:15.319Z,32.26
2019-03-31T14:27:15.287Z,32.69
2019-03-31T14:28:15.320Z,32.44
2019-03-31T14:29:15.376Z,33.10
2019-03-31T14:30:15.322Z,32.35
2019-03-31T14:31:15.287Z,32.60
2019-03-31T14:32:15.282Z,32.50
2019-03-31T14:33:15.311Z,32.62
2019-03-31T14:34:15.293Z,32.23
2019-03-31T14:35:15.296Z,31.84
2019-03-31T14:36:15.298Z,32.08
2019-03-31T14:37:15.288Z,32.09
2019-03-31T14:38:15.309Z,31.92
2019-03-31T14:39:17.112Z,31.83
2019-03-31T14:40:15.307Z,32.15
2019-03-31T14:41:15.346Z,31.97
2019-03-31T14:42:15.322Z,31.49
2019-03-31T14:43:15.350Z,31.35
2019-03-31T14:44:15.384Z,31.43
2019-03-31T14:45:15.338Z,31.46
2019-03-31T14:46:15.394Z,31.24
2019-03-31T14:47:15.303Z,31.42
2019-03-31T14:48:15.324Z,31.58
2019-03-31T14:49:15.499Z,31.69
2019-03-31T14:50:15.359Z,31.28
2019-03-31T14:51:15.306Z,31.51
2019-03-31T14:52:26.658Z,31.03
2019-03-31T14:53:15.336Z,31.40
2019-03-31T14:54:15.397Z,31.08
2019-03-31T14:55:15.323Z,31.29
2019-03-31T14:56:15.348Z,31.65
2019-03-31T14:57:15.329Z,31.40
2019-03-31T14:58:15.350Z,31.23
2019-03-31T14:59:15.360Z,31.07
2019-03-31T15:00:15.566Z,31.37
2019-03-31T15:01:15.346Z,30.77
2019-03-31T15:02:15.313Z,31.20
2019-03-31T15:03:18.001Z,31.39
2019-03-31T15:04:15.438Z,31.16
2019-03-31T15:05:15.318Z,31.22
2019-03-31T15:06:15.328Z,31.64
2019-03-31T15:07:15.333Z,31.24
2019-03-31T15:08:15.410Z,31.35
2019-03-31T15:09:15.425Z,31.06
2019-03-31T15:10:15.366Z,31.38
2019-03-31T15:11:15.391Z,31.05
2019-03-31T15:12:15.443Z,31.39
2019-03-31T15:13:15.423Z,30.73
2019-03-31T15:14:15.462Z,30.73
2019-03-31T15:15:15.478Z,31.28
2019-03-31T15:16:15.456Z,30.95
2019-03-31T15:17:15.491Z,30.69
2019-03-31T15:18:15.472Z,30.72
2019-03-31T15:19:15.584Z,31.45
2019-03-31T15:20:15.566Z,31.06
2019-03-31T15:21:15.532Z,30.85
2019-03-31T15:22:15.575Z,31.09
2019-03-31T15:23:15.553Z,31.27
2019-03-31T15:24:15.591Z,31.11
2019-03-31T15:25:15.552Z,31.31
2019-03-31T15:26:15.633Z,31.11
2019-03-31T15:27:15.593Z,30.81
2019-03-31T15:28:15.662Z,31.24
2019-03-31T15:29:15.667Z,31.02
2019-03-31T15:30:15.686Z,31.33
2019-03-31T15:31:15.664Z,31.11
2019-03-31T15:32:15.686Z,30.98
2019-03-31T15:33:15.649Z,31.17
2019-03-31T15:34:15.763Z,31.52
2019-03-31T15:35:15.741Z,30.86
2019-03-31T15:36:15.698Z,31.30
2019-03-31T15:37:15.777Z,31.07
2019-03-31T15:38:15.760Z,31.53
2019-03-31T15:39:15.739Z,31.39
2019-03-31T15:40:15.818Z,31.06
2019-03-31T15:41:21.339Z,31.05
2019-03-31T15:42:15.753Z,31.19
2019-03-31T15:43:15.772Z,31.26
2019-03-31T15:44:15.785Z,31.27
2019-03-31T15:45:15.779Z,31.54
2019-03-31T15:46:15.743Z,31.14
2019-03-31T15:47:15.760Z,31.39
2019-03-31T15:48:15.822Z,31.72
2019-03-31T15:49:15.815Z,31.15
2019-03-31T15:50:15.774Z,31.32
2019-03-31T15:51:15.769Z,31.50
2019-03-31T15:52:15.762Z,31.58
2019-03-31T15:53:15.804Z,31.67
2019-03-31T15:54:15.839Z,31.64
2019-03-31T15:55:15.807Z,31.63
2019-03-31T15:56:15.778Z,31.79
2019-03-31T15:57:15.796Z,31.50
2019-03-31T15:58:15.771Z,31.70
2019-03-31T15:59:15.780Z,31.86
2019-03-31T16:00:15.799Z,31.73
2019-03-31T16:01:15.780Z,31.90
2019-03-31T16:02:15.792Z,31.79
2019-03-31T16:37:15.874Z,32.36
2019-03-31T16:39:10.494Z,32.40
2019-03-31T16:40:10.429Z,32.77
2019-03-31T16:41:10.459Z,32.77
2019-03-31T16:42:10.413Z,32.61
2019-03-31T16:43:10.448Z,32.60
2019-03-31T16:44:10.398Z,32.38
2019-03-31T16:45:10.460Z,32.61
2019-03-31T16:46:10.440Z,32.68
2019-03-31T16:47:10.457Z,32.58
2019-03-31T16:48:10.432Z,32.65
2019-03-31T16:49:10.426Z,32.71
2019-03-31T16:50:10.483Z,32.77
2019-03-31T16:51:10.742Z,32.75
2019-03-31T16:52:10.427Z,32.64
2019-03-31T16:53:10.449Z,32.91
2019-03-31T16:54:10.456Z,32.89
2019-03-31T16:55:10.450Z,32.51
2019-03-31T16:56:10.587Z,32.71
2019-03-31T16:57:10.476Z,32.91
2019-03-31T16:58:10.464Z,32.62
2019-03-31T16:59:10.436Z,32.84
2019-03-31T17:00:10.451Z,33.01
2019-03-31T17:01:10.521Z,32.98
2019-03-31T17:02:10.471Z,32.97
2019-03-31T17:03:10.446Z,32.96
2019-03-31T17:04:10.474Z,32.83
2019-03-31T17:05:21.206Z,32.89
2019-03-31T17:06:10.498Z,32.69
2019-03-31T17:07:10.456Z,32.78
2019-03-31T17:08:10.468Z,32.93
2019-03-31T17:09:10.420Z,32.66
2019-03-31T17:10:10.462Z,32.55
2019-03-31T17:11:10.512Z,33.06
2019-03-31T17:12:10.487Z,32.70
2019-03-31T17:13:10.442Z,32.85
2019-03-31T17:14:10.498Z,32.96
2019-03-31T17:15:10.513Z,32.94
2019-03-31T17:16:10.496Z,33.14
2019-03-31T17:17:10.503Z,32.90
2019-03-31T17:18:10.489Z,32.74
2019-03-31T17:19:10.465Z,32.83
2019-03-31T17:20:10.463Z,33.07
2019-03-31T17:21:10.679Z,32.97
2019-03-31T17:22:10.506Z,32.46
2019-03-31T17:23:10.564Z,32.59
2019-03-31T17:24:10.553Z,33.10
2019-03-31T17:25:10.637Z,32.60
2019-03-31T17:26:10.654Z,33.03
2019-03-31T17:27:13.890Z,32.74
